Time;durP1;ratioP1;P1;durP2;ratioP2;P2;SDS_P1;SDS_P2;PMS_P1;PMS_P2;Temp;Humidity;BMP_temperature;BMP_pressure;BME280_temperature;BME280_humidity;BME280_pressure;Samples;Min_cycle;Max_cycle;Signal;HPM_P1;HPM_P2
2022/01/22 00:02:07;;;;;;;10.50;7.68;;;;;;;1.80;79.01;97986.38;5077373;28;20052;-81
2022/01/22 00:04:36;;;;;;;11.57;7.75;;;;;;;1.82;79.21;97993.06;5077217;28;20482;-81
2022/01/22 00:07:06;;;;;;;9.55;6.93;;;;;;;1.83;79.00;97991.31;5076418;28;20060;-81
2022/01/22 00:09:51;;;;;;;10.65;7.03;;;;;;;1.83;79.26;97970.75;5077599;28;20079;-81
2022/01/22 00:12:41;;;;;;;11.07;7.53;;;;;;;1.82;78.92;97980.22;5077224;28;20072;-81
2022/01/22 00:15:11;;;;;;;11.50;8.13;;;;;;;1.80;79.25;97978.66;5077080;28;20052;-80
2022/01/22 00:17:39;;;;;;;10.82;8.27;;;;;;;1.80;79.67;97971.75;5075750;28;20063;-80
2022/01/22 00:20:08;;;;;;;11.52;8.02;;;;;;;1.79;79.30;97966.69;5077163;28;20051;-81
2022/01/22 00:22:37;;;;;;;11.43;7.50;;;;;;;1.77;79.29;97963.38;5076673;28;20421;-81
2022/01/22 00:25:08;;;;;;;11.02;8.07;;;;;;;1.76;79.34;97972.84;5076693;28;20075;-81
2022/01/22 00:27:39;;;;;;;9.85;7.55;;;;;;;1.77;79.46;97965.97;5076534;28;20056;-81
2022/01/22 00:30:09;;;;;;;8.52;7.10;;;;;;;1.77;79.13;97965.97;5076388;28;20044;-80
2022/01/22 00:32:37;;;;;;;11.82;7.28;;;;;;;1.77;78.97;97965.97;5076373;28;20502;-81
2022/01/22 00:35:06;;;;;;;11.10;8.23;;;;;;;1.76;79.28;97965.13;5092790;28;20052;-80
2022/01/22 00:37:36;;;;;;;12.00;8.73;;;;;;;1.79;79.79;97958.97;5098874;28;20036;-80
2022/01/22 00:40:06;;;;;;;10.93;8.38;;;;;;;1.79;79.67;97956.41;5082034;28;20037;-81
2022/01/22 00:42:34;;;;;;;9.82;7.32;;;;;;;1.79;79.04;97958.97;5075364;28;20059;-81
2022/01/22 00:45:03;;;;;;;13.20;7.75;;;;;;;1.78;79.37;97959.91;5085369;28;20055;-81
2022/01/22 00:47:31;;;;;;;9.73;7.85;;;;;;;1.78;79.28;97967.63;5098760;28;20032;-80
2022/01/22 00:49:58;;;;;;;11.00;6.88;;;;;;;1.77;78.82;97963.38;5077021;28;20044;-81
2022/01/22 00:52:26;;;;;;;10.38;8.32;;;;;;;1.78;79.58;97957.34;5076099;28;20060;-81
2022/01/22 00:54:53;;;;;;;12.05;7.68;;;;;;;1.75;79.83;97954.94;5076894;28;20045;-81
2022/01/22 00:57:22;;;;;;;8.98;7.15;;;;;;;1.75;79.43;97968.66;5076047;28;20063;-80
2022/01/22 00:59:50;;;;;;;14.25;8.05;;;;;;;1.74;79.79;97955.88;5075823;28;20049;-81
2022/01/22 01:02:19;;;;;;;10.15;8.10;;;;;;;1.75;80.23;97949.78;5075882;28;20413;-80
2022/01/22 01:04:47;;;;;;;9.05;7.20;;;;;;;1.77;80.26;97956.53;5076364;28;20494;-80
2022/01/22 01:07:14;;;;;;;11.38;7.13;;;;;;;1.78;79.79;97952.19;5075677;28;20060;-81
2022/01/22 01:09:42;;;;;;;8.85;7.15;;;;;;;1.77;79.75;97956.53;5076183;28;20044;-81
2022/01/22 01:12:12;;;;;;;10.00;7.32;;;;;;;1.76;79.25;97960.00;5075991;28;20067;-81
2022/01/22 01:14:45;;;;;;;10.10;7.15;;;;;;;1.78;79.79;97960.72;5085439;28;20032;-80
2022/01/22 01:17:34;;;;;;;10.75;7.38;;;;;;;1.77;79.88;97960.81;5097032;28;20056;-80
2022/01/22 01:33:58;;;;;;;9.68;7.70;;;;;;;1.77;80.33;97976.25;5075005;28;20059;-80
2022/01/22 01:36:27;;;;;;;7.88;7.07;;;;;;;1.76;79.91;97977.19;5074718;28;20494;-81
2022/01/22 01:38:59;;;;;;;9.73;7.78;;;;;;;1.76;79.92;97974.63;5075952;28;20517;-81
2022/01/22 01:41:33;;;;;;;10.10;7.25;;;;;;;1.76;79.55;97961.75;5075697;28;20051;-80
2022/01/22 01:44:01;;;;;;;9.73;7.50;;;;;;;1.75;80.13;97972.94;5075088;28;20063;-81
2022/01/22 01:46:31;;;;;;;9.20;7.15;;;;;;;1.76;80.24;97970.28;5075066;28;20055;-81
2022/01/22 01:49:00;;;;;;;10.73;7.82;;;;;;;1.78;80.99;97970.19;5074834;28;20071;-81
2022/01/22 01:51:31;;;;;;;9.40;7.80;;;;;;;1.80;80.75;97961.47;5075094;28;20525;-81
2022/01/22 01:54:04;;;;;;;12.27;7.82;;;;;;;1.80;80.48;97958.88;5075062;28;20071;-81
2022/01/22 01:59:18;;;;;;;12.15;8.35;;;;;;;1.84;80.47;97956.97;5078364;28;20049;-81
2022/01/22 02:01:46;;;;;;;9.55;7.47;;;;;;;1.84;80.50;97959.53;5079078;28;20048;-81
2022/01/22 02:04:14;;;;;;;12.45;8.43;;;;;;;1.82;80.54;97959.63;5075661;28;20048;-81
2022/01/22 02:06:43;;;;;;;11.40;8.48;;;;;;;1.81;80.79;97962.28;5075193;28;20338;-81
2022/01/22 02:09:11;;;;;;;14.65;9.55;;;;;;;1.81;80.86;97963.09;5074654;28;20391;-81
2022/01/22 02:11:39;;;;;;;13.70;9.95;;;;;;;1.81;80.69;97963.09;5075075;28;20045;-81
2022/01/22 02:23:29;;;;;;;13.82;9.52;;;;;;;1.81;80.76;97952.00;5075240;28;20045;-81
2022/01/22 02:25:14;;;;;;;16.35;10.80;;;;;;;1.81;80.92;97960.53;5076637;28;20045;-80
2022/01/22 02:27:42;;;;;;;17.02;10.15;;;;;;;1.82;80.38;97966.53;5074902;28;20418;-81
2022/01/22 02:30:17;;;;;;;13.45;9.85;;;;;;;1.83;80.80;97965.59;5074885;28;20083;-81
2022/01/22 02:33:03;;;;;;;14.35;9.73;;;;;;;1.83;81.04;97956.13;5074656;28;20052;-81
2022/01/22 02:35:37;;;;;;;15.38;9.18;;;;;;;1.83;80.75;97945.00;5074752;28;20053;-80
2022/01/22 02:38:12;;;;;;;14.18;9.60;;;;;;;1.82;80.72;97938.22;5085869;22;20447;-78
2022/01/22 02:40:44;;;;;;;14.10;10.07;;;;;;;1.82;80.76;97933.09;5033011;28;20045;-79
2022/01/22 02:43:12;;;;;;;12.60;8.85;;;;;;;1.81;81.19;97927.09;5032758;28;20060;-79
2022/01/22 02:45:41;;;;;;;11.93;9.23;;;;;;;1.81;81.14;97927.09;5032643;28;20046;-79
2022/01/22 02:48:08;;;;;;;13.35;9.23;;;;;;;1.83;81.10;97929.56;5035197;28;20056;-78
2022/01/22 02:50:36;;;;;;;15.90;10.00;;;;;;;1.82;81.32;97925.38;5032558;28;20415;-79
2022/01/22 02:53:04;;;;;;;13.90;9.63;;;;;;;1.82;80.81;97935.66;5032453;28;20061;-78
2022/01/22 02:55:33;;;;;;;14.48;10.82;;;;;;;1.81;81.02;97931.41;5032149;28;20530;-78
2022/01/22 02:58:01;;;;;;;14.77;10.25;;;;;;;1.82;81.42;97933.09;5031900;28;20080;-79
2022/01/22 03:00:28;;;;;;;15.45;10.95;;;;;;;1.85;81.26;97938.84;5032701;28;20049;-78
2022/01/22 03:02:56;;;;;;;13.80;10.38;;;;;;;1.87;81.16;97922.50;5032513;28;20088;-79
2022/01/22 03:05:24;;;;;;;16.65;10.93;;;;;;;1.88;81.33;97927.56;5033784;28;20053;-80
2022/01/22 03:07:54;;;;;;;15.18;10.07;;;;;;;1.88;81.36;97927.56;5035876;28;20427;-78
2022/01/22 03:10:25;;;;;;;16.13;10.43;;;;;;;1.89;81.34;97929.19;5035449;28;20526;-80
2022/01/22 03:13:13;;;;;;;17.52;9.88;;;;;;;1.91;81.20;97927.34;5034097;28;20060;-79
2022/01/22 03:16:06;;;;;;;14.25;9.82;;;;;;;1.89;81.36;97925.81;5033973;28;20454;-78
2022/01/22 03:18:42;;;;;;;16.08;10.55;;;;;;;1.88;80.91;97921.56;5033854;28;20060;-78
2022/01/22 03:21:25;;;;;;;14.07;10.52;;;;;;;1.87;80.63;97931.03;5033995;28;20396;-78
2022/01/22 03:29:32;;;;;;;14.10;10.05;;;;;;;1.88;81.06;97937.00;5033675;28;20045;-78
2022/01/22 03:32:00;;;;;;;15.07;9.88;;;;;;;1.90;81.15;97935.97;5035505;28;20488;-78
2022/01/22 03:34:28;;;;;;;18.58;10.23;;;;;;;1.92;81.66;97934.16;5035016;28;20050;-78
2022/01/22 03:36:56;;;;;;;15.93;10.63;;;;;;;1.95;82.22;97928.81;5035028;28;20061;-79
2022/01/22 03:39:23;;;;;;;14.75;9.77;;;;;;;1.95;81.50;97928.81;5036319;28;20073;-77
2022/01/22 03:41:52;;;;;;;15.48;10.45;;;;;;;1.95;81.39;97933.16;5036220;28;20049;-80
2022/01/22 03:44:20;;;;;;;14.95;10.38;;;;;;;1.94;81.19;97940.03;5036232;28;20477;-77
2022/01/22 03:46:49;;;;;;;14.18;9.50;;;;;;;1.94;81.17;97932.31;5035406;28;20049;-76
2022/01/22 03:49:17;;;;;;;15.73;10.10;;;;;;;1.94;80.90;97937.44;5035676;28;20057;-75
2022/01/22 03:51:45;;;;;;;16.30;11.07;;;;;;;1.96;80.98;97927.06;5035604;28;20042;-77
2022/01/22 03:54:13;;;;;;;13.48;9.60;;;;;;;1.97;81.30;97929.56;5034934;28;20049;-77
2022/01/22 03:56:45;;;;;;;15.45;9.73;;;;;;;1.98;81.14;97933.78;5034830;28;20054;-76
2022/01/22 03:59:13;;;;;;;15.30;10.93;;;;;;;1.98;80.92;97927.81;5035341;28;20049;-76
2022/01/22 04:04:31;;;;;;;14.35;9.88;;;;;;;2.01;81.23;97938.75;5034626;28;20140;-77
2022/01/22 04:07:31;;;;;;;;;;;;;;;2.05;81.68;97940.19;5035568;28;20060;-76
2022/01/22 04:10:00;;;;;;;17.02;11.10;;;;;;;2.03;80.99;97930.91;5034648;28;19929;-76
2022/01/22 04:12:35;;;;;;;15.57;10.60;;;;;;;2.01;81.14;97933.59;5034758;28;20052;-77
2022/01/22 04:15:05;;;;;;;14.10;9.65;;;;;;;2.03;81.54;97936.91;5035025;28;20396;-77
2022/01/22 04:25:57;;;;;;;14.45;10.18;;;;;;;2.08;81.26;97946.06;5034662;28;20049;-76
2022/01/22 04:28:24;;;;;;;15.40;10.98;;;;;;;2.10;81.44;97941.66;5034460;28;20084;-76
2022/01/22 04:30:52;;;;;;;17.75;11.55;;;;;;;2.11;81.67;97941.56;5034711;28;20561;-76
2022/01/22 04:33:19;;;;;;;17.08;10.45;;;;;;;2.14;81.89;97943.13;5034375;28;20057;-77
2022/01/22 04:35:48;;;;;;;15.57;11.05;;;;;;;2.15;81.58;97942.22;5034226;28;20054;-76
2022/01/22 04:38:16;;;;;;;16.05;11.27;;;;;;;2.17;81.21;97935.22;5033950;28;20529;-76
2022/01/22 04:40:43;;;;;;;15.00;10.82;;;;;;;2.20;81.20;97940.16;5034077;28;20503;-76
2022/01/22 04:43:11;;;;;;;15.40;10.95;;;;;;;2.19;81.16;97943.66;5034402;28;20056;-76
2022/01/22 04:45:52;;;;;;;18.00;11.88;;;;;;;2.20;81.42;97942.72;5034458;28;20050;-77
2022/01/22 04:48:40;;;;;;;14.65;10.18;;;;;;;2.22;81.58;97944.28;5034048;28;20056;-77
2022/01/22 04:56:39;;;;;;;18.80;10.63;;;;;;;2.26;81.10;97940.59;5034044;28;20499;-76
2022/01/22 04:59:07;;;;;;;17.90;11.55;;;;;;;2.28;81.08;97940.50;5034007;28;20057;-76
2022/01/22 05:01:34;;;;;;;16.25;12.50;;;;;;;2.30;81.36;97936.09;5034025;28;20057;-76
2022/01/22 05:04:02;;;;;;;16.85;12.05;;;;;;;2.28;81.11;97945.66;5034027;28;20053;-76
2022/01/22 05:06:31;;;;;;;19.98;12.02;;;;;;;2.26;80.72;97952.66;5033681;28;20061;-77
2022/01/22 05:08:58;;;;;;;17.40;11.68;;;;;;;2.27;80.80;97949.13;5033822;28;20503;-77
2022/01/22 05:11:26;;;;;;;19.08;12.23;;;;;;;2.28;81.24;97961.09;5034173;28;20432;-77
2022/01/22 05:13:53;;;;;;;18.20;13.20;;;;;;;2.30;81.05;97959.25;5035050;28;20419;-76
2022/01/22 05:16:21;;;;;;;18.00;11.85;;;;;;;2.29;80.92;97941.31;5052385;28;20072;-76
2022/01/22 05:18:54;;;;;;;20.08;12.52;;;;;;;2.30;81.39;97940.41;5053188;28;20046;-77
2022/01/22 05:21:23;;;;;;;;;;;;;;;2.35;81.95;97952.06;5052460;28;20041;-78
2022/01/22 05:23:53;;;;;;;16.33;11.25;;;;;;;2.33;80.79;97946.19;5036201;28;19921;-77
2022/01/22 05:26:50;;;;;;;17.67;12.10;;;;;;;2.33;80.99;97947.94;5035145;28;20060;-77
2022/01/22 05:29:32;;;;;;;16.67;11.30;;;;;;;2.32;81.11;97962.56;5039320;28;20033;-78
2022/01/22 05:32:24;;;;;;;19.45;12.07;;;;;;;2.32;81.15;97954.84;5047229;28;20076;-77
2022/01/22 05:37:37;;;;;;;22.77;13.63;;;;;;;2.31;80.57;97967.81;5045029;28;20054;-78
2022/01/22 05:40:08;;;;;;;20.88;12.15;;;;;;;2.31;80.89;97966.06;5044908;28;20053;-77
2022/01/22 05:42:36;;;;;;;20.58;12.85;;;;;;;2.33;80.98;97969.34;5041808;28;20046;-77
2022/01/22 05:45:05;;;;;;;19.65;11.77;;;;;;;2.33;80.62;97968.53;5038293;28;20049;-77
2022/01/22 05:47:33;;;;;;;17.05;12.38;;;;;;;2.32;81.13;97967.72;5037585;28;20053;-77
2022/01/22 05:50:05;;;;;;;19.00;12.00;;;;;;;2.33;80.65;97969.34;5037233;28;20049;-78
2022/01/22 05:52:38;;;;;;;20.55;12.82;;;;;;;2.33;80.98;97971.94;5038398;28;20050;-77
2022/01/22 05:55:40;;;;;;;21.08;12.80;;;;;;;2.35;81.56;97970.09;5036517;28;20049;-78
2022/01/22 06:00:54;;;;;;;18.73;12.85;;;;;;;2.39;81.10;97984.44;5046314;28;20053;-77
2022/01/22 06:03:21;;;;;;;18.27;12.50;;;;;;;2.38;81.25;97987.91;5045520;28;20105;-77
2022/01/22 06:05:49;;;;;;;19.15;12.57;;;;;;;2.38;81.06;97990.50;5043959;28;20056;-76
2022/01/22 06:08:17;;;;;;;24.75;14.65;;;;;;;2.37;81.15;97990.59;5043393;28;20150;-77
2022/01/22 06:10:53;;;;;;;20.25;13.75;;;;;;;2.39;81.10;97989.59;5034699;28;20049;-77
2022/01/22 06:13:28;;;;;;;19.73;13.35;;;;;;;2.40;81.14;97983.50;5033869;28;20415;-77
2022/01/22 06:15:56;;;;;;;19.70;13.98;;;;;;;2.41;81.20;97984.34;5033306;28;20065;-76
2022/01/22 06:18:23;;;;;;;25.67;14.43;;;;;;;2.40;80.49;97986.06;5033749;28;20048;-76
2022/01/22 06:20:51;;;;;;;24.02;13.90;;;;;;;2.38;80.59;97976.78;5033443;28;20056;-77
2022/01/22 06:23:18;;;;;;;21.08;13.30;;;;;;;2.37;80.65;97986.28;5033680;28;20042;-76
2022/01/22 06:25:47;;;;;;;22.08;13.25;;;;;;;2.36;80.75;97984.63;5033364;28;20463;-76
2022/01/22 06:28:15;;;;;;;22.73;14.05;;;;;;;2.37;80.94;97978.53;5033385;28;20045;-77
2022/01/22 06:30:44;;;;;;;23.77;13.52;;;;;;;2.37;81.23;97973.41;5033482;28;20057;-76
2022/01/22 06:33:11;;;;;;;20.90;11.93;;;;;;;2.37;81.09;97980.31;5033274;28;20049;-76
2022/01/22 06:35:39;;;;;;;20.38;13.32;;;;;;;2.37;80.42;97988.03;5033522;28;20426;-76
2022/01/22 06:38:08;;;;;;;18.13;12.40;;;;;;;2.36;80.96;97988.94;5033287;28;20408;-76
2022/01/22 06:43:22;;;;;;;16.02;11.65;;;;;;;2.37;80.55;97996.56;5037208;28;20045;-76
2022/01/22 06:45:50;;;;;;;55.10;30.33;;;;;;;2.39;80.98;98004.22;5036788;28;20486;-76
2022/01/22 06:48:17;;;;;;;24.92;15.90;;;;;;;2.38;81.03;97993.06;5036850;28;20514;-76
2022/01/22 06:50:45;;;;;;;19.23;13.05;;;;;;;2.40;81.30;98005.84;5036667;28;20096;-77
2022/01/22 06:53:12;;;;;;;21.10;14.00;;;;;;;2.41;81.27;97998.03;5036313;28;20049;-76
2022/01/22 06:55:44;;;;;;;16.80;12.15;;;;;;;2.43;81.20;98005.69;5036725;28;20053;-76
2022/01/22 06:58:12;;;;;;;19.20;11.90;;;;;;;2.43;81.05;98010.81;5036076;28;20057;-78
2022/01/22 07:00:40;;;;;;;17.25;12.52;;;;;;;2.41;80.70;98003.19;5036580;28;20056;-78
2022/01/22 07:03:08;;;;;;;16.92;11.13;;;;;;;2.41;81.25;98003.19;5036007;28;20442;-76
2022/01/22 07:05:36;;;;;;;17.25;11.63;;;;;;;2.41;81.06;98010.09;5035710;28;20144;-76
2022/01/22 07:08:04;;;;;;;23.90;14.90;;;;;;;2.40;80.97;98011.81;5035503;28;20056;-76
2022/01/22 07:10:31;;;;;;;41.70;25.08;;;;;;;2.38;81.42;98008.50;5037508;28;20099;-76
2022/01/22 07:12:59;;;;;;;23.17;15.48;;;;;;;2.37;81.18;98012.03;5036279;28;20052;-76
2022/01/22 07:15:28;;;;;;;20.95;13.57;;;;;;;2.38;80.75;98018.00;5035666;28;20061;-78
2022/01/22 07:17:57;;;;;;;20.27;13.45;;;;;;;2.37;80.99;98014.59;5035379;28;20056;-78
2022/01/22 07:20:28;;;;;;;21.60;13.40;;;;;;;2.37;81.08;98012.03;5035789;28;20065;-78
2022/01/22 07:23:02;;;;;;;17.55;11.10;;;;;;;2.37;80.92;98017.19;5035491;28;20068;-77
2022/01/22 07:25:30;;;;;;;16.90;10.75;;;;;;;2.34;80.81;98021.69;5035423;28;20055;-77
2022/01/22 07:27:58;;;;;;;16.48;11.13;;;;;;;2.31;80.24;98021.88;5035110;28;20045;-77
2022/01/22 07:30:27;;;;;;;16.90;11.40;;;;;;;2.31;80.66;98021.88;5035053;28;20045;-78
2022/01/22 07:32:55;;;;;;;14.82;10.45;;;;;;;2.30;81.45;98015.91;5035104;28;20068;-78
2022/01/22 07:35:23;;;;;;;38.45;23.40;;;;;;;2.33;81.32;98020.84;5035304;28;20087;-77
2022/01/22 07:37:51;;;;;;;58.03;33.55;;;;;;;2.36;81.45;98019.84;5034535;28;20550;-78
2022/01/22 07:40:18;;;;;;;24.52;14.35;;;;;;;2.39;81.89;98020.47;5035375;28;20056;-77
2022/01/22 07:42:46;;;;;;;17.50;11.63;;;;;;;2.37;80.90;98027.47;5035380;28;20053;-76
2022/01/22 07:45:14;;;;;;;14.32;10.30;;;;;;;2.36;80.66;98035.28;5035366;28;20049;-77
2022/01/22 07:47:41;;;;;;;15.52;10.57;;;;;;;2.39;81.51;98041.09;5035197;28;20049;-77
2022/01/22 07:50:10;;;;;;;15.32;11.23;;;;;;;2.43;82.16;98046.88;5035496;28;20053;-80
2022/01/22 07:52:39;;;;;;;99.22;55.38;;;;;;;2.43;82.10;98037.41;5036691;28;20167;-76
2022/01/22 07:55:07;;;;;;;21.95;14.70;;;;;;;2.43;81.22;98041.72;5035977;28;20065;-77
2022/01/22 07:57:35;;;;;;;18.13;12.35;;;;;;;2.42;81.28;98040.06;5042570;28;20064;-79
2022/01/22 08:00:06;;;;;;;18.70;11.45;;;;;;;2.40;81.15;98042.72;5045598;28;20049;-76
2022/01/22 08:02:35;;;;;;;15.90;11.07;;;;;;;2.37;81.08;98042.94;5046172;28;20646;-81
2022/01/22 08:05:10;;;;;;;14.88;10.70;;;;;;;2.37;81.69;98045.50;5041374;28;20053;-81
2022/01/22 08:07:48;;;;;;;13.38;9.65;;;;;;;2.40;81.83;98047.88;5040429;28;20053;-80
2022/01/22 08:10:24;;;;;;;14.52;9.48;;;;;;;2.40;81.49;98047.88;5042741;28;20057;-81
2022/01/22 08:13:02;;;;;;;14.68;9.93;;;;;;;2.40;81.26;98052.22;5041243;28;20115;-81
2022/01/22 08:15:34;;;;;;;12.02;9.02;;;;;;;2.41;81.57;98053.88;5038678;28;20077;-80
2022/01/22 08:18:14;;;;;;;14.30;9.45;;;;;;;2.42;81.45;98058.91;5040531;28;20072;-81
2022/01/22 08:20:48;;;;;;;13.63;9.20;;;;;;;2.44;81.74;98057.06;5039750;28;20503;-80
2022/01/22 08:23:24;;;;;;;12.02;9.23;;;;;;;2.44;81.27;98064.78;5037579;28;20136;-81
2022/01/22 08:26:06;;;;;;;11.10;8.45;;;;;;;2.41;81.19;98067.56;5044941;28;20128;-81
2022/01/22 08:28:58;;;;;;;11.40;8.32;;;;;;;2.45;81.31;98060.50;5041774;28;20096;-81
2022/01/22 08:31:43;;;;;;;10.77;8.30;;;;;;;2.43;80.91;98052.84;5037679;28;20049;-80
2022/01/22 08:36:58;;;;;;;10.65;7.93;;;;;;;2.38;80.56;98059.19;5038729;28;20103;-80
2022/01/22 08:39:27;;;;;;;12.95;8.73;;;;;;;2.37;80.59;98063.53;5034095;28;20049;-80
2022/01/22 08:41:55;;;;;;;12.20;8.68;;;;;;;2.35;80.49;98065.38;5083343;22;20172;-75
2022/01/22 08:44:23;;;;;;;11.70;8.63;;;;;;;2.37;80.91;98057.56;5054960;28;20083;-75
2022/01/22 08:46:51;;;;;;;16.00;8.50;;;;;;;2.37;81.13;98063.53;5053797;28;20095;-74
2022/01/22 08:49:18;;;;;;;14.13;9.45;;;;;;;2.38;81.22;98060.00;5055452;28;20071;-77
2022/01/22 08:51:46;;;;;;;14.15;10.35;;;;;;;2.40;81.57;98070.22;5055847;28;20053;-75
2022/01/22 08:54:13;;;;;;;14.55;10.10;;;;;;;2.40;81.14;98078.78;5054179;28;20048;-78
2022/01/22 08:56:42;;;;;;;14.45;9.98;;;;;;;2.39;80.80;98090.00;5052272;28;20331;-78
2022/01/22 08:59:11;;;;;;;14.10;10.23;;;;;;;2.38;80.88;98090.09;5052629;28;20057;-77
2022/01/22 09:01:40;;;;;;;14.95;10.15;;;;;;;2.40;81.26;98091.66;5052333;28;20573;-78
2022/01/22 09:04:08;;;;;;;14.57;10.43;;;;;;;2.40;80.70;98091.66;5051888;28;20083;-78
2022/01/22 09:06:35;;;;;;;16.58;9.57;;;;;;;2.40;80.63;98090.84;5052792;28;20331;-78
2022/01/22 09:09:09;;;;;;;20.08;12.27;;;;;;;2.42;81.05;98091.56;5052288;28;20507;-79
2022/01/22 09:11:37;;;;;;;14.70;10.27;;;;;;;2.41;80.83;98083.03;5055014;28;20049;-78
2022/01/22 09:14:11;;;;;;;16.05;10.75;;;;;;;2.44;81.37;98089.72;5054053;28;20507;-78
2022/01/22 09:16:40;;;;;;;16.85;10.98;;;;;;;2.44;81.35;98090.56;5053938;28;20064;-78
2022/01/22 09:19:11;;;;;;;15.77;10.35;;;;;;;2.45;81.09;98086.25;5054058;28;20049;-77
2022/01/22 09:21:41;;;;;;;18.55;11.02;;;;;;;2.45;81.20;98087.06;5054347;28;20051;-78
2022/01/22 09:24:10;;;;;;;14.90;10.90;;;;;;;2.47;81.72;98092.09;5054613;28;20041;-78
2022/01/22 09:26:37;;;;;;;14.90;10.07;;;;;;;2.47;81.44;98090.38;5053587;28;20053;-78
2022/01/22 09:29:07;;;;;;;18.48;10.75;;;;;;;2.49;81.51;98108.28;5073463;28;20072;-78
2022/01/22 09:31:35;;;;;;;17.15;11.05;;;;;;;2.47;81.36;98105.84;5078089;28;20083;-77
2022/01/22 09:34:03;;;;;;;14.73;10.77;;;;;;;2.48;81.67;98106.66;5057831;28;20060;-78
2022/01/22 09:36:32;;;;;;;14.65;10.52;;;;;;;2.47;81.34;98110.13;5053954;28;20056;-77
2022/01/22 09:39:00;;;;;;;18.25;11.55;;;;;;;2.47;81.72;98110.13;5065494;28;20025;-77
2022/01/22 09:41:28;;;;;;;14.73;10.60;;;;;;;2.48;81.42;98116.97;5077313;28;20035;-78
2022/01/22 09:43:56;;;;;;;16.92;12.07;;;;;;;2.52;81.65;98117.59;5053955;28;20064;-78
2022/01/22 09:46:26;;;;;;;42.63;23.58;;;;;;;2.53;81.95;98119.25;5053889;28;20072;-78
2022/01/22 09:48:55;;;;;;;18.95;12.10;;;;;;;2.52;81.63;98118.44;5053533;28;20044;-78
2022/01/22 09:51:23;;;;;;;18.08;11.10;;;;;;;2.53;81.49;98129.56;5053165;28;20040;-78
2022/01/22 09:53:53;;;;;;;15.55;11.13;;;;;;;2.53;82.05;98125.22;5053456;28;20052;-78
2022/01/22 09:56:22;;;;;;;15.60;10.32;;;;;;;2.55;81.88;98127.72;5052540;28;20098;-78
2022/01/22 09:58:50;;;;;;;16.90;11.98;;;;;;;2.56;81.35;98129.34;5053040;28;20118;-78
2022/01/22 10:01:23;;;;;;;17.27;10.93;;;;;;;2.57;81.26;98128.44;5053688;28;20045;-78
2022/01/22 10:03:56;;;;;;;14.95;10.85;;;;;;;2.56;81.71;98127.63;5054197;28;20044;-78
2022/01/22 10:06:25;;;;;;;29.13;18.75;;;;;;;2.55;81.69;98138.84;5054074;28;20525;-78
2022/01/22 10:09:05;;;;;;;24.38;15.88;;;;;;;2.55;81.48;98133.69;5054291;28;20466;-78
2022/01/22 10:11:33;;;;;;;16.20;11.27;;;;;;;2.53;81.33;98139.84;5053175;28;20049;-78
2022/01/22 10:14:02;;;;;;;15.80;11.05;;;;;;;2.52;81.48;98138.22;5053438;28;20049;-78
2022/01/22 10:16:32;;;;;;;17.20;11.57;;;;;;;2.52;81.61;98138.22;5052719;28;20179;-78
2022/01/22 10:19:13;;;;;;;17.45;11.05;;;;;;;2.52;81.48;98153.66;5052736;28;20533;-78
2022/01/22 10:21:43;;;;;;;16.98;11.45;;;;;;;2.51;81.81;98150.25;5052672;28;20064;-78
2022/01/22 10:24:40;;;;;;;19.05;10.55;;;;;;;2.47;81.77;98147.03;5053518;28;20406;-78
2022/01/22 10:27:22;;;;;;;17.55;11.57;;;;;;;2.46;81.57;98142.78;5017969;28;20075;-78
2022/01/22 10:29:53;;;;;;;15.75;11.07;;;;;;;2.46;81.08;98145.38;5053182;28;20049;-78
2022/01/22 10:32:26;;;;;;;16.63;10.70;;;;;;;2.47;81.65;98133.31;5052762;28;20499;-78
2022/01/22 10:35:08;;;;;;;14.98;10.60;;;;;;;2.48;81.68;98140.97;5053271;28;20041;-78
2022/01/22 10:37:36;;;;;;;15.23;9.82;;;;;;;2.47;81.21;98146.19;5052678;28;20457;-77
2022/01/22 10:40:27;;;;;;;13.65;9.88;;;;;;;2.45;81.08;98133.44;5053384;28;20521;-78
2022/01/22 10:43:12;;;;;;;13.13;9.52;;;;;;;2.47;82.00;98123.88;5053043;28;20049;-78
2022/01/22 10:45:41;;;;;;;12.65;8.77;;;;;;;2.48;81.32;98122.94;5052777;28;20518;-78
2022/01/22 10:48:21;;;;;;;15.27;10.05;;;;;;;2.47;81.35;98113.56;5052789;28;20541;-78
2022/01/22 10:51:02;;;;;;;13.25;9.30;;;;;;;2.46;81.33;98104.16;5053779;28;20060;-78
2022/01/22 10:53:38;;;;;;;13.20;9.35;;;;;;;2.48;82.38;98094.59;5052832;28;20136;-78
2022/01/22 10:56:07;;;;;;;58.22;32.53;;;;;;;2.49;81.93;98103.16;5052848;28;20068;-78
2022/01/22 10:58:35;;;;;;;18.25;11.82;;;;;;;2.48;81.73;98102.31;5053371;28;20053;-78
2022/01/22 11:01:05;;;;;;;13.15;9.32;;;;;;;2.48;81.26;98102.31;5053387;28;20071;-77
2022/01/22 11:03:33;;;;;;;10.20;8.32;;;;;;;2.48;81.13;98099.75;5053110;28;20049;-78
2022/01/22 11:06:08;;;;;;;10.75;7.72;;;;;;;2.50;81.44;98091.13;5052422;28;20045;-78
2022/01/22 11:08:36;;;;;;;10.52;8.60;;;;;;;2.50;81.19;98097.09;5052710;28;20041;-78
2022/01/22 11:11:04;;;;;;;10.23;8.13;;;;;;;2.50;80.85;98098.84;5071527;28;20056;-78
2022/01/22 11:13:31;;;;;;;12.95;9.32;;;;;;;2.47;81.57;98097.25;5075439;28;20055;-78
2022/01/22 11:15:59;;;;;;;12.10;8.25;;;;;;;2.45;81.70;98097.38;5069719;28;20151;-76
2022/01/22 11:18:28;;;;;;;13.90;8.80;;;;;;;2.45;81.08;98099.13;5057215;28;20049;-76
2022/01/22 11:20:55;;;;;;;13.32;9.38;;;;;;;2.45;80.96;98097.38;5053702;28;20525;-75
2022/01/22 11:23:25;;;;;;;14.02;9.55;;;;;;;2.47;81.30;98111.00;5052025;28;20064;-76
2022/01/22 11:25:52;;;;;;;15.27;9.73;;;;;;;2.49;81.44;98116.03;5031138;28;20041;-76
2022/01/22 11:28:21;;;;;;;12.32;8.88;;;;;;;2.52;80.63;98120.19;5034959;28;20064;-76
2022/01/22 11:30:50;;;;;;;14.52;9.48;;;;;;;2.52;80.86;98115.03;5034238;28;20735;-75
2022/01/22 11:33:21;;;;;;;15.02;10.45;;;;;;;2.54;81.21;98115.78;5045812;28;20057;-76
2022/01/22 11:36:02;;;;;;;14.02;9.45;;;;;;;2.57;81.41;98118.16;5055658;28;20045;-75
2022/01/22 11:38:35;;;;;;;12.50;9.23;;;;;;;2.55;80.77;98112.25;5056038;28;20068;-76
2022/01/22 11:41:08;;;;;;;16.00;9.55;;;;;;;2.54;81.21;98110.63;5055656;28;20060;-75
2022/01/22 11:43:55;;;;;;;12.75;8.82;;;;;;;2.55;80.69;98107.09;5054488;28;20056;-76
2022/01/22 11:46:28;;;;;;;13.38;9.10;;;;;;;2.54;81.05;98110.63;5055520;28;20048;-76
2022/01/22 11:49:22;;;;;;;13.32;9.85;;;;;;;2.56;81.37;98108.75;5055834;28;20119;-76
2022/01/22 11:51:51;;;;;;;13.50;8.93;;;;;;;2.58;81.34;98096.59;5044076;28;20053;-76
2022/01/22 11:54:23;;;;;;;14.15;9.70;;;;;;;2.61;81.27;98106.72;5055621;28;20060;-75
2022/01/22 11:56:53;;;;;;;17.95;10.75;;;;;;;2.62;81.11;98105.78;5055717;28;20510;-76
2022/01/22 11:59:29;;;;;;;16.45;11.02;;;;;;;2.63;81.96;98110.03;5055231;28;20521;-76
2022/01/22 12:02:03;;;;;;;13.38;9.25;;;;;;;2.63;81.33;98104.91;5035010;28;20065;-76
2022/01/22 12:04:52;;;;;;;13.20;9.18;;;;;;;2.63;81.41;98094.59;5036024;28;20148;-75
2022/01/22 12:07:22;;;;;;;11.93;8.57;;;;;;;2.63;80.86;98089.44;5035120;28;20076;-76
2022/01/22 12:10:31;;;;;;;12.15;8.88;;;;;;;2.63;81.16;98090.25;5035722;28;20045;-75
2022/01/22 12:16:48;;;;;;;12.55;8.88;;;;;;;2.70;81.50;98088.13;5045240;28;20050;-75
2022/01/22 12:19:52;;;;;;;10.63;8.13;;;;;;;2.68;80.89;98084.81;5047655;28;20057;-75
2022/01/22 12:22:32;;;;;;;15.07;10.05;;;;;;;2.70;81.65;98085.53;5035889;28;20049;-75
2022/01/22 12:25:02;;;;;;;13.88;9.63;;;;;;;2.72;81.13;98093.19;5050370;28;20097;-75
2022/01/22 12:27:44;;;;;;;14.05;10.15;;;;;;;2.72;82.23;98086.28;5076560;28;20029;-76
2022/01/22 12:30:12;;;;;;;13.70;9.02;;;;;;;2.73;81.21;98095.66;5076744;28;20052;-76
2022/01/22 12:32:47;;;;;;;14.77;10.00;;;;;;;2.73;81.97;98087.91;5035126;28;20057;-76
2022/01/22 12:35:17;;;;;;;13.50;9.57;;;;;;;2.75;81.97;98101.53;5034998;28;20049;-76
2022/01/22 12:37:51;;;;;;;13.55;10.32;;;;;;;2.78;81.58;98092.81;5048074;28;20048;-76
2022/01/22 12:40:31;;;;;;;14.48;10.15;;;;;;;2.78;81.48;98095.38;5058838;28;20057;-75
2022/01/22 12:43:10;;;;;;;13.82;9.68;;;;;;;2.79;81.79;98099.59;5034617;28;20053;-77
2022/01/22 12:45:41;;;;;;;14.85;9.75;;;;;;;2.77;81.35;98106.59;5034618;28;20042;-80
2022/01/22 12:48:11;;;;;;;15.43;9.95;;;;;;;2.76;81.56;98102.38;5034257;28;20164;-75
2022/01/22 12:50:39;;;;;;;17.80;11.23;;;;;;;2.75;81.40;98098.97;5034448;28;20053;-77
2022/01/22 12:53:12;;;;;;;15.52;10.73;;;;;;;2.74;80.96;98099.91;5035457;28;20061;-76